Airport View

Enter AWOS ICAO identifier for current METAR.

ex. KFNL

KMVN 250256Z AUTO 03004KT 10SM OVC055 21/21 A2998 RMK AO2 SLP147 60014 T02110206 51011

25 Jun 2018 03:53

Frequency: 113.8

Phone: 618-242-7933

Other Area AWOS: KENL - KSLO - KFWC - KFOA

TAF AMD KBLV 250303Z 2503/2606 16009KT 9999 OVC090 QNH2991INS BECMG 2504/2506 17006KT 9999 BKN030 OVC070 QNH2996INS BECMG 2507/2508 VRB06KT 9999 OVC030 QNH2997INS BECMG 2511/2512 VRB06KT 9999 BKN030 QNH2998INS BECMG 2514/2515 15010G15KT 9999 SCT025 QNH2995INS BECMG 2523/2524 15006KT 9999 SCT020 QNH2992INS TX29/2520Z TN21/2508Z